Time;durP1;ratioP1;P1;durP2;ratioP2;P2;SDS_P1;SDS_P2;PMS_P1;PMS_P2;Temp;Humidity;BMP_temperature;BMP_pressure;BME280_temperature;BME280_humidity;BME280_pressure;Samples;Min_cycle;Max_cycle;Signal;HPM_P1;HPM_P2
2022/10/22 00:00:17;;;;;;;23.00;12.87;;;;;;;8.42;68.62;97976.38;5074254;28;20640;-80
2022/10/22 00:02:44;;;;;;;20.67;13.33;;;;;;;8.51;68.95;97970.16;5069318;28;20200;-81
2022/10/22 00:05:11;;;;;;;25.57;15.43;;;;;;;8.48;68.55;97959.88;5069367;28;20185;-80
2022/10/22 00:07:39;;;;;;;21.23;13.03;;;;;;;8.47;68.36;97947.88;5069223;28;20193;-80
2022/10/22 00:10:07;;;;;;;22.70;12.90;;;;;;;8.43;67.28;97952.22;5068346;28;20217;-80
2022/10/22 00:12:38;;;;;;;19.07;11.30;;;;;;;8.58;67.19;97956.19;5069344;28;20224;-80
2022/10/22 00:15:05;;;;;;;23.37;14.17;;;;;;;8.56;67.19;97952.81;5068467;28;20186;-80
2022/10/22 00:17:32;;;;;;;20.70;13.97;;;;;;;8.39;67.75;97935.13;5068812;28;20198;-80
2022/10/22 00:19:59;;;;;;;20.50;13.33;;;;;;;8.45;67.57;97947.88;5067353;28;20199;-81
2022/10/22 00:22:29;;;;;;;26.43;13.43;;;;;;;8.46;67.36;97941.00;5068437;28;20196;-81
2022/10/22 00:24:55;;;;;;;20.23;14.30;;;;;;;8.44;67.11;97945.34;5069333;28;20681;-79
2022/10/22 00:27:23;;;;;;;24.83;14.23;;;;;;;8.46;67.04;97918.63;5068470;28;20189;-78
2022/10/22 00:29:50;;;;;;;26.17;16.07;;;;;;;8.62;66.83;97943.19;5068981;28;20185;-78
2022/10/22 00:32:17;;;;;;;26.47;17.23;;;;;;;8.52;67.21;97936.56;5068115;28;20223;-79
2022/10/22 00:34:44;;;;;;;35.97;21.33;;;;;;;8.52;66.71;97938.28;5068407;28;20225;-79
2022/10/22 00:37:11;;;;;;;46.13;26.63;;;;;;;8.27;68.06;97931.97;5066759;28;20198;-79
2022/10/22 00:39:38;;;;;;;59.60;34.53;;;;;;;8.32;67.88;97937.88;5068283;28;20266;-79
2022/10/22 00:42:06;;;;;;;74.37;42.10;;;;;;;8.17;69.03;97934.75;5068358;28;20193;-77
2022/10/22 00:45:10;;;;;;;84.10;45.57;;;;;;;8.15;69.11;97933.06;5067880;28;20560;-79
2022/10/22 00:47:39;;;;;;;87.63;46.07;;;;;;;8.18;69.46;97931.25;5067215;28;20596;-79
2022/10/22 00:50:10;;;;;;;83.13;45.43;;;;;;;8.27;69.35;97922.50;5067981;28;20211;-82
2022/10/22 00:52:39;;;;;;;86.53;45.17;;;;;;;8.23;67.95;97918.25;5068061;28;20212;-79
2022/10/22 00:55:07;;;;;;;72.83;41.27;;;;;;;8.15;68.07;97912.44;5068988;28;20702;-78
2022/10/22 00:57:35;;;;;;;76.70;40.90;;;;;;;8.14;68.72;97919.31;5068413;28;20181;-78
2022/10/22 01:00:06;;;;;;;72.27;39.40;;;;;;;8.07;69.40;97922.94;5068599;28;20197;-79
2022/10/22 01:02:33;;;;;;;61.37;37.90;;;;;;;7.91;69.71;97905.25;5066271;28;20695;-76
2022/10/22 01:05:00;;;;;;;76.30;38.07;;;;;;;7.85;69.68;97918.25;5068066;28;20193;-77
2022/10/22 01:07:29;;;;;;;47.97;28.60;;;;;;;7.73;69.30;97915.94;5067567;28;20200;-82
2022/10/22 01:10:30;;;;;;;51.83;28.40;;;;;;;7.54;69.91;97923.19;5066436;28;20188;-82
2022/10/22 01:13:45;;;;;;;49.63;25.53;;;;;;;7.48;69.07;97917.31;5068224;28;20216;-83
2022/10/22 01:16:36;;;;;;;30.33;17.70;;;;;;;7.04;71.19;97894.94;5065075;28;20194;-80
2022/10/22 01:19:34;;;;;;;37.20;18.73;;;;;;;6.69;73.14;97907.59;5064987;28;20217;-82
2022/10/22 01:22:24;;;;;;;30.20;17.83;;;;;;;6.57;73.91;97901.75;5067853;28;20752;-80
2022/10/22 01:25:20;;;;;;;30.50;18.73;;;;;;;6.39;73.88;97902.06;5066006;28;20198;-79
2022/10/22 01:28:10;;;;;;;81.30;41.53;;;;;;;5.97;75.47;97894.13;5067254;28;20547;-81
2022/10/22 01:30:39;;;;;;;122.47;57.00;;;;;;;5.70;77.23;97892.75;5072875;28;20198;-81
2022/10/22 01:33:10;;;;;;;131.00;62.53;;;;;;;5.72;76.44;97886.72;5074943;28;20218;-81
2022/10/22 01:35:41;;;;;;;175.23;78.77;;;;;;;5.95;76.03;97889.00;5079774;28;20705;-80
2022/10/22 01:38:12;;;;;;;183.03;82.13;;;;;;;6.01;76.10;97886.34;5080023;28;20261;-81
2022/10/22 01:40:41;;;;;;;205.43;95.60;;;;;;;5.85;76.72;97864.31;5068098;28;20187;-81
2022/10/22 01:43:10;;;;;;;225.23;101.90;;;;;;;5.91;77.52;97889.94;5068065;28;20184;-81
2022/10/22 01:45:49;;;;;;;227.13;104.33;;;;;;;6.06;77.04;97892.25;5065609;28;20204;-82
2022/10/22 01:48:33;;;;;;;241.50;107.47;;;;;;;6.04;77.17;97894.00;5068699;28;20201;-79
2022/10/22 01:51:22;;;;;;;217.50;100.40;;;;;;;5.98;77.22;97873.53;5066638;28;20194;-79
2022/10/22 01:53:56;;;;;;;224.00;102.47;;;;;;;5.90;77.97;97890.78;5069882;28;20218;-78
2022/10/22 01:56:31;;;;;;;200.40;95.73;;;;;;;5.74;78.67;97889.25;5069138;28;20227;-78
2022/10/22 01:59:36;;;;;;;214.37;100.03;;;;;;;5.69;79.22;97884.19;5066737;28;20189;-79
2022/10/22 02:02:18;;;;;;;204.30;91.80;;;;;;;5.81;78.76;97888.31;5065478;28;20635;-80
2022/10/22 02:04:53;;;;;;;229.13;104.73;;;;;;;6.01;78.27;97888.94;5067560;28;20190;-80
2022/10/22 02:07:25;;;;;;;241.30;107.90;;;;;;;5.92;78.92;97873.63;5067447;28;20275;-81
2022/10/22 02:09:55;;;;;;;227.67;100.50;;;;;;;5.88;78.49;97876.25;5080969;28;20181;-78
2022/10/22 02:12:24;;;;;;;231.87;102.43;;;;;;;5.97;79.71;97887.28;5076706;28;20186;-81
2022/10/22 02:14:52;;;;;;;204.30;96.03;;;;;;;5.89;79.83;97893.38;5072998;28;20213;-80
2022/10/22 02:17:21;;;;;;;186.30;90.30;;;;;;;5.95;79.06;97885.59;5073288;28;20209;-81
2022/10/22 02:20:04;;;;;;;195.77;87.50;;;;;;;6.03;78.47;97886.31;5069851;28;20189;-82
2022/10/22 02:22:33;;;;;;;169.37;80.17;;;;;;;5.94;79.97;97877.03;5066137;28;20187;-81
2022/10/22 02:25:00;;;;;;;169.73;77.27;;;;;;;6.04;79.05;97877.75;5065091;28;20199;-79
2022/10/22 02:28:11;;;;;;;137.33;68.83;;;;;;;6.10;79.05;97898.25;5065707;28;20225;-78
2022/10/22 02:30:43;;;;;;;134.90;59.87;;;;;;;6.06;80.07;97888.88;5065694;28;20194;-81
2022/10/22 02:33:12;;;;;;;138.17;59.33;;;;;;;6.16;79.93;97891.25;5064662;28;20230;-80
2022/10/22 02:35:41;;;;;;;113.63;53.73;;;;;;;6.19;79.95;97891.22;5066830;28;20218;-79
2022/10/22 02:38:12;;;;;;;104.90;53.30;;;;;;;6.26;79.64;97899.69;5066419;28;20197;-81
2022/10/22 02:40:39;;;;;;;90.30;46.47;;;;;;;6.17;79.37;97868.97;5070867;28;20197;-79
2022/10/22 02:43:06;;;;;;;87.33;43.30;;;;;;;6.28;79.32;97892.81;5070639;28;20258;-81
2022/10/22 02:45:34;;;;;;;66.40;37.53;;;;;;;6.20;79.17;97894.66;5070111;28;20582;-81
2022/10/22 02:48:01;;;;;;;76.27;37.40;;;;;;;6.22;79.24;97888.59;5070628;28;20199;-81
2022/10/22 02:50:29;;;;;;;59.67;32.57;;;;;;;6.20;79.78;97880.03;5069073;28;20670;-81
2022/10/22 02:52:56;;;;;;;72.27;36.07;;;;;;;6.40;79.06;97893.47;5053599;28;20241;-81
2022/10/22 02:55:23;;;;;;;73.63;37.23;;;;;;;6.55;78.73;97887.25;5070588;28;20180;-79
2022/10/22 02:57:49;;;;;;;66.37;33.90;;;;;;;6.51;77.71;97877.88;5070723;28;20183;-81
2022/10/22 03:00:16;;;;;;;57.83;32.67;;;;;;;6.60;77.13;97893.13;5070786;28;20192;-79
2022/10/22 03:02:43;;;;;;;67.60;34.97;;;;;;;6.36;78.97;97884.09;5070086;28;20191;-81
2022/10/22 03:05:12;;;;;;;73.67;35.87;;;;;;;6.40;79.26;97882.31;5053159;28;20287;-82
2022/10/22 03:07:39;;;;;;;65.57;35.30;;;;;;;6.24;79.28;97874.00;5070772;28;20262;-79
2022/10/22 03:10:08;;;;;;;73.80;38.10;;;;;;;6.32;78.93;97887.59;5071654;28;20201;-80
2022/10/22 03:12:36;;;;;;;76.13;38.50;;;;;;;6.21;79.54;97886.06;5070501;28;20198;-78
2022/10/22 03:15:06;;;;;;;86.20;44.60;;;;;;;6.17;79.24;97889.53;5070214;28;20241;-79
2022/10/22 03:17:34;;;;;;;76.93;37.90;;;;;;;5.99;79.11;97875.25;5069867;28;20205;-81
2022/10/22 03:20:02;;;;;;;69.37;36.10;;;;;;;6.01;80.34;97883.78;5068436;28;20198;-78
2022/10/22 03:22:31;;;;;;;60.80;35.00;;;;;;;6.08;79.57;97881.97;5070258;28;20590;-80
2022/10/22 03:25:06;;;;;;;58.80;33.90;;;;;;;6.22;78.85;97888.59;5069711;28;20191;-79
2022/10/22 03:27:36;;;;;;;69.23;34.03;;;;;;;6.23;78.62;97872.31;5070099;28;20185;-79
2022/10/22 03:30:07;;;;;;;67.70;33.70;;;;;;;6.10;77.76;97878.50;5069520;28;20192;-80
2022/10/22 03:32:34;;;;;;;57.80;33.43;;;;;;;6.04;78.61;97878.59;5068530;28;20215;-78
2022/10/22 03:35:01;;;;;;;66.53;37.23;;;;;;;5.97;78.97;97869.28;5068565;28;20232;-77
2022/10/22 03:37:30;;;;;;;77.47;36.70;;;;;;;5.77;79.11;97878.94;5068887;28;20199;-77
2022/10/22 03:39:58;;;;;;;74.10;39.73;;;;;;;5.66;80.52;97870.53;5069883;28;20190;-78
2022/10/22 03:42:25;;;;;;;85.80;41.57;;;;;;;5.75;80.08;97881.53;5068353;28;20206;-79
2022/10/22 03:44:52;;;;;;;95.77;41.87;;;;;;;5.61;80.32;97862.88;5068675;28;20279;-79
2022/10/22 03:47:19;;;;;;;84.63;45.67;;;;;;;5.62;80.79;97876.59;5067931;28;20313;-80
2022/10/22 03:49:46;;;;;;;94.20;45.23;;;;;;;5.57;81.58;97873.22;5077354;28;20191;-81
2022/10/22 03:52:13;;;;;;;91.90;44.43;;;;;;;5.49;81.44;97870.75;5070891;28;20654;-79
2022/10/22 03:54:41;;;;;;;100.40;46.87;;;;;;;5.48;82.05;97865.63;5067805;28;20563;-81
2022/10/22 03:57:09;;;;;;;168.20;69.77;;;;;;;5.54;82.34;97868.13;5068415;28;20209;-79
2022/10/22 03:59:46;;;;;;;141.47;61.80;;;;;;;5.49;82.11;97857.06;5068061;28;20254;-78
2022/10/22 04:02:13;;;;;;;130.97;59.60;;;;;;;5.55;81.60;97854.41;5069364;28;20191;-79
2022/10/22 04:04:40;;;;;;;113.07;53.83;;;;;;;5.51;82.03;97839.91;5067604;28;20195;-81
2022/10/22 04:07:08;;;;;;;94.93;44.90;;;;;;;5.62;81.37;97867.16;5067103;28;20209;-81
2022/10/22 04:09:35;;;;;;;86.80;42.67;;;;;;;5.63;80.92;97848.28;5067925;28;20197;-80
2022/10/22 04:12:04;;;;;;;80.87;37.67;;;;;;;5.73;81.35;97865.28;5066507;28;20202;-81
2022/10/22 04:14:31;;;;;;;71.43;35.57;;;;;;;5.67;81.71;97867.09;5066975;28;20226;-79
2022/10/22 04:16:58;;;;;;;60.80;33.00;;;;;;;5.55;82.06;97852.69;5067263;28;20188;-80
2022/10/22 04:19:25;;;;;;;63.73;32.40;;;;;;;5.57;82.14;97873.22;5066870;28;20612;-80
2022/10/22 04:21:52;;;;;;;67.93;32.60;;;;;;;5.62;82.03;97861.16;5067546;28;20282;-79
2022/10/22 04:24:19;;;;;;;67.70;32.93;;;;;;;5.49;82.71;97867.31;5068587;28;20182;-81
2022/10/22 04:26:46;;;;;;;56.07;33.67;;;;;;;5.44;83.56;97858.84;5072848;28;20183;-80
2022/10/22 04:29:13;;;;;;;67.00;33.63;;;;;;;5.39;82.64;97846.06;5066504;28;20181;-80
2022/10/22 04:31:42;;;;;;;61.23;31.30;;;;;;;5.57;82.10;97861.22;5067738;28;20225;-78
2022/10/22 04:34:09;;;;;;;52.77;27.90;;;;;;;5.53;83.17;97871.56;5057918;28;281134;-80
2022/10/22 04:36:36;;;;;;;47.93;27.27;;;;;;;5.51;82.46;97865.59;5061201;28;20202;-79
2022/10/22 04:39:04;;;;;;;41.50;24.77;;;;;;;5.55;82.65;97862.09;5067821;28;20187;-78
2022/10/22 04:41:36;;;;;;;37.47;21.90;;;;;;;5.48;82.50;97863.91;5068991;28;20195;-81
2022/10/22 04:44:04;;;;;;;40.27;23.73;;;;;;;5.64;82.61;97847.44;5068354;28;20198;-78
2022/10/22 04:46:33;;;;;;;40.10;23.33;;;;;;;5.67;81.82;97839.66;5072479;28;20182;-80
2022/10/22 04:49:03;;;;;;;43.67;24.57;;;;;;;5.85;81.42;97848.03;5068468;28;20210;-81
2022/10/22 04:51:31;;;;;;;53.33;26.13;;;;;;;6.22;79.79;97856.91;5065703;28;20274;-81
2022/10/22 04:53:59;;;;;;;45.90;26.10;;;;;;;6.39;79.19;97860.88;5066893;28;20450;-81
2022/10/22 04:56:29;;;;;;;61.40;29.77;;;;;;;6.57;77.97;97860.59;5067110;28;20277;-79
2022/10/22 04:58:57;;;;;;;69.47;33.37;;;;;;;6.52;77.34;97862.41;5068324;28;20183;-80
2022/10/22 05:01:27;;;;;;;66.40;33.87;;;;;;;6.31;78.05;97842.16;5065579;28;20192;-79
2022/10/22 05:03:56;;;;;;;81.43;40.83;;;;;;;6.14;79.03;97845.88;5067814;28;20190;-78
2022/10/22 05:06:24;;;;;;;104.77;49.53;;;;;;;5.92;79.45;97868.47;5067938;28;20190;-78
2022/10/22 05:08:55;;;;;;;93.13;42.67;;;;;;;5.92;79.24;97857.34;5068154;28;20213;-78
2022/10/22 05:11:27;;;;;;;96.13;44.07;;;;;;;5.92;80.32;97859.91;5051036;28;20221;-79
2022/10/22 05:13:56;;;;;;;121.03;52.10;;;;;;;5.75;80.50;97855.84;5067574;28;20219;-80
2022/10/22 05:16:24;;;;;;;156.93;65.67;;;;;;;5.89;80.43;97850.56;5068185;28;20528;-81
2022/10/22 05:18:52;;;;;;;157.50;72.90;;;;;;;6.05;80.12;97859.72;5066361;28;20202;-80
2022/10/22 05:21:20;;;;;;;166.67;73.17;;;;;;;6.19;78.44;97859.50;5067853;28;20189;-81
2022/10/22 05:23:49;;;;;;;162.50;68.27;;;;;;;6.38;78.03;97869.50;5066761;28;20222;-80
2022/10/22 05:26:20;;;;;;;142.70;63.37;;;;;;;6.32;78.29;97838.72;5066704;28;20186;-79
2022/10/22 05:28:49;;;;;;;141.43;57.57;;;;;;;6.73;76.24;97863.75;5067882;28;20197;-80
2022/10/22 05:31:17;;;;;;;109.90;47.83;;;;;;;6.86;75.59;97862.66;5049230;28;20198;-80
2022/10/22 05:33:46;;;;;;;83.17;38.57;;;;;;;6.81;75.05;97853.31;5066025;28;20286;-82
2022/10/22 05:36:23;;;;;;;68.97;35.83;;;;;;;6.99;74.61;97868.41;5067647;28;20715;-79
2022/10/22 05:38:52;;;;;;;62.27;32.13;;;;;;;6.97;74.65;97865.03;5067046;28;20202;-79
2022/10/22 05:41:22;;;;;;;55.80;29.93;;;;;;;7.00;74.13;97871.00;5069324;28;20926;-80
2022/10/22 05:43:53;;;;;;;50.40;26.97;;;;;;;6.98;73.73;97856.44;5053185;28;20290;-80
2022/10/22 05:46:21;;;;;;;55.63;28.40;;;;;;;6.85;73.66;97852.38;5050093;28;20938;-80
2022/10/22 05:48:50;;;;;;;55.03;28.57;;;;;;;6.87;74.83;97860.94;5066259;28;20545;-80
2022/10/22 05:51:18;;;;;;;62.57;31.50;;;;;;;7.05;74.83;97871.75;5067579;28;20642;-82
2022/10/22 05:53:52;;;;;;;83.60;37.23;;;;;;;7.08;73.68;97863.97;5067294;28;20945;-80
2022/10/22 05:56:21;;;;;;;89.50;43.50;;;;;;;7.25;73.58;97845.63;5067108;28;20187;-80
2022/10/22 05:58:48;;;;;;;121.10;53.83;;;;;;;7.37;73.35;97851.38;5066230;28;20189;-80
2022/10/22 06:01:19;;;;;;;134.70;57.90;;;;;;;7.60;72.41;97874.09;5070999;28;20242;-80
2022/10/22 06:03:57;;;;;;;130.43;61.03;;;;;;;7.74;71.76;97868.63;5080894;28;20591;-81
2022/10/22 06:06:46;;;;;;;127.40;59.40;;;;;;;7.85;71.04;97864.94;5070778;28;20188;-79
2022/10/22 06:09:23;;;;;;;124.63;53.00;;;;;;;8.33;70.04;97867.31;5053877;28;20207;-80
2022/10/22 06:11:52;;;;;;;116.10;52.40;;;;;;;8.50;70.01;97872.94;5087199;28;20595;-80
2022/10/22 06:14:20;;;;;;;93.30;47.20;;;;;;;8.55;70.00;97866.75;5066664;28;20308;-81
2022/10/22 06:16:49;;;;;;;100.13;48.20;;;;;;;8.78;69.88;97866.19;5049291;28;20189;-80
2022/10/22 06:19:20;;;;;;;98.80;44.73;;;;;;;8.99;68.53;97871.66;5048068;28;20713;-79
2022/10/22 06:21:47;;;;;;;100.30;46.00;;;;;;;9.09;69.18;97872.25;5045686;28;20185;-80
2022/10/22 06:24:17;;;;;;;94.90;43.57;;;;;;;9.16;68.25;97852.28;5046733;28;20208;-80
2022/10/22 06:26:50;;;;;;;77.60;40.60;;;;;;;9.43;67.94;97870.47;5047245;28;20212;-80
2022/10/22 06:29:18;;;;;;;88.23;39.70;;;;;;;9.58;68.02;97862.25;5047900;28;20182;-79
2022/10/22 06:31:46;;;;;;;82.23;38.77;;;;;;;9.63;67.49;97855.22;5044533;28;20186;-80
2022/10/22 06:34:19;;;;;;;77.57;38.03;;;;;;;9.74;66.93;97868.72;5030621;28;20336;-81
2022/10/22 06:36:46;;;;;;;80.43;37.90;;;;;;;9.74;67.14;97873.03;5030304;28;20266;-79
2022/10/22 06:39:16;;;;;;;83.47;39.43;;;;;;;9.80;66.78;97865.94;5047234;28;20251;-80
2022/10/22 06:41:48;;;;;;;79.70;40.60;;;;;;;10.01;66.50;97867.03;5053252;28;20202;-81
2022/10/22 06:44:20;;;;;;;92.63;41.67;;;;;;;10.20;66.16;97875.94;5013937;28;20283;-81
2022/10/22 06:46:51;;;;;;;92.73;40.90;;;;;;;10.44;65.59;97874.34;5047789;28;20197;-80
2022/10/22 06:49:21;;;;;;;95.67;43.57;;;;;;;10.57;65.54;97868.72;5066183;28;20202;-85
2022/10/22 06:52:03;;;;;;;82.80;41.93;;;;;;;10.78;64.45;97866.34;5047593;28;20200;-79
2022/10/22 06:54:33;;;;;;;87.87;40.57;;;;;;;10.99;63.95;97876.81;5036808;28;20231;-80
2022/10/22 06:57:43;;;;;;;118.23;50.97;;;;;;;11.12;63.60;97865.13;5085597;28;20188;-79
2022/10/22 07:01:05;;;;;;;65.03;32.70;;;;;;;11.43;61.93;97860.56;5087390;28;20198;-80
2022/10/22 07:04:26;;;;;;;70.77;34.73;;;;;;;11.60;62.46;97867.72;5069868;28;20887;-80
2022/10/22 07:07:48;;;;;;;59.73;31.73;;;;;;;11.65;61.56;97868.38;5085944;28;20255;-79
2022/10/22 07:11:10;;;;;;;50.97;28.47;;;;;;;11.68;62.33;97868.31;5067594;28;20218;-81
2022/10/22 07:14:31;;;;;;;42.27;25.47;;;;;;;11.62;61.35;97846.91;5086508;28;20232;-80
2022/10/22 07:17:56;;;;;;;54.87;27.03;;;;;;;11.61;61.81;97860.75;5087236;28;20188;-80
2022/10/22 07:21:17;;;;;;;100.73;33.37;;;;;;;11.71;62.41;97846.59;5070240;28;20256;-81
2022/10/22 07:24:39;;;;;;;41.67;22.17;;;;;;;11.89;61.99;97866.69;5085609;28;20836;-80
2022/10/22 07:28:03;;;;;;;38.07;21.23;;;;;;;11.87;61.87;97863.28;5074316;28;20550;-80
2022/10/22 07:31:24;;;;;;;41.10;20.57;;;;;;;11.89;61.54;97859.72;5089239;28;20709;-80
2022/10/22 07:34:44;;;;;;;37.03;21.60;;;;;;;11.96;61.58;97857.75;5092205;28;20292;-80
2022/10/22 07:38:07;;;;;;;40.97;19.63;;;;;;;11.95;62.00;97854.28;5098869;28;20183;-79
2022/10/22 07:41:29;;;;;;;42.03;20.93;;;;;;;11.88;61.59;97847.66;5081683;28;20670;-80
2022/10/22 07:44:50;;;;;;;64.93;21.47;;;;;;;11.94;61.40;97837.03;5091109;28;20186;-81
2022/10/22 07:48:11;;;;;;;41.03;21.00;;;;;;;11.80;61.88;97846.25;5092120;28;20197;-80
2022/10/22 07:51:32;;;;;;;39.50;21.50;;;;;;;11.89;61.61;97851.09;5090459;28;20195;-81
2022/10/22 07:54:56;;;;;;;52.10;22.40;;;;;;;12.07;61.69;97846.06;5088760;28;20219;-87
2022/10/22 07:58:19;;;;;;;43.63;21.60;;;;;;;12.35;61.27;97848.41;5087882;28;20190;-81
2022/10/22 08:01:40;;;;;;;37.63;21.70;;;;;;;12.84;59.65;97844.63;5087647;28;20185;-80
2022/10/22 08:05:01;;;;;;;31.80;19.07;;;;;;;12.61;59.27;97827.41;5086848;28;20220;-80
2022/10/22 08:08:23;;;;;;;38.60;20.20;;;;;;;12.82;59.15;97826.50;5088824;28;20313;-81
2022/10/22 08:11:50;;;;;;;33.13;20.73;;;;;;;12.80;59.14;97849.13;5086783;28;20228;-80
2022/10/22 08:15:16;;;;;;;35.60;19.43;;;;;;;12.90;59.09;97850.44;5089060;28;20267;-82
2022/10/22 08:18:38;;;;;;;36.07;19.07;;;;;;;12.99;58.40;97847.44;5089644;28;20202;-81
2022/10/22 08:22:19;;;;;;;;;;;;;;;;;;;;;
2022/10/22 08:26:55;;;;;;;49.90;21.70;;;;;;;12.68;58.13;97726.63;5090248;28;20297;-86
2022/10/22 08:30:19;;;;;;;45.90;19.73;;;;;;;13.53;58.09;97827.78;5088402;28;20348;-84
2022/10/22 08:33:50;;;;;;;39.17;18.70;;;;;;;13.75;57.29;97836.28;5070493;28;20230;-80
2022/10/22 08:37:13;;;;;;;34.17;17.67;;;;;;;14.09;56.15;97839.03;5087166;28;20183;-84
2022/10/22 08:40:43;;;;;;;32.07;16.27;;;;;;;14.15;55.50;97830.94;5087390;28;20196;-84
2022/10/22 08:43:53;;;;;;;39.07;18.93;;;;;;;14.27;55.39;97834.72;5069574;28;20275;-85
2022/10/22 08:46:56;;;;;;;27.70;15.90;;;;;;;14.24;54.79;97837.47;5085727;28;20196;-82
2022/10/22 08:50:21;;;;;;;32.17;17.07;;;;;;;14.33;54.94;97824.88;5089701;28;20291;-79
2022/10/22 08:53:44;;;;;;;48.73;18.07;;;;;;;14.11;55.80;97841.56;5089225;28;20190;-82
2022/10/22 08:57:05;;;;;;;43.60;18.83;;;;;;;14.27;55.41;97825.16;5088122;28;20191;-80
2022/10/22 09:00:10;;;;;;;41.53;18.27;;;;;;;14.33;55.05;97830.09;5088553;28;20188;-81
2022/10/22 09:03:03;;;;;;;45.17;19.43;;;;;;;14.47;54.72;97822.44;5088844;28;20195;-81
2022/10/22 09:06:25;;;;;;;46.47;16.80;;;;;;;14.35;54.68;97822.19;5087898;28;20272;-85
2022/10/22 09:09:54;;;;;;;35.50;17.03;;;;;;;14.41;55.04;97827.09;5087967;28;20249;-85
2022/10/22 09:13:25;;;;;;;44.73;18.03;;;;;;;14.46;55.26;97820.78;5087670;28;20204;-84
2022/10/22 09:16:33;;;;;;;42.27;19.27;;;;;;;14.52;54.95;97823.06;5089093;28;20219;-81
2022/10/22 09:19:20;;;;;;;43.30;16.60;;;;;;;14.35;55.79;97814.38;5071740;28;20198;-80
2022/10/22 09:22:21;;;;;;;36.93;17.00;;;;;;;14.42;55.31;97829.66;5069762;28;20548;-81
2022/10/22 09:25:42;;;;;;;36.50;15.60;;;;;;;14.74;54.16;97804.59;5085292;28;20199;-80
2022/10/22 09:29:05;;;;;;;36.87;15.13;;;;;;;15.24;53.15;97807.25;5086870;28;20217;-80
2022/10/22 09:32:26;;;;;;;28.57;14.23;;;;;;;15.43;52.80;97815.84;5085701;28;20191;-81
2022/10/22 09:35:51;;;;;;;21.60;13.53;;;;;;;15.53;52.07;97809.19;5086338;28;20242;-82
2022/10/22 09:39:22;;;;;;;24.97;13.93;;;;;;;15.44;52.64;97796.63;5089253;28;20204;-81
2022/10/22 09:42:43;;;;;;;32.10;14.80;;;;;;;15.50;52.49;97800.69;5085089;28;20192;-81
2022/10/22 09:46:06;;;;;;;26.20;13.00;;;;;;;15.57;52.22;97778.53;5086350;28;20365;-83
2022/10/22 09:49:36;;;;;;;22.10;13.30;;;;;;;15.50;52.64;97772.81;5085775;28;20198;-80
2022/10/22 09:53:04;;;;;;;19.50;12.30;;;;;;;15.68;52.29;97773.59;5085812;28;20192;-83
2022/10/22 09:56:32;;;;;;;24.17;15.33;;;;;;;15.63;52.46;97766.00;5071527;28;20249;-80
2022/10/22 09:59:45;;;;;;;19.73;10.97;;;;;;;15.66;54.39;97726.66;5071477;28;20204;-82
2022/10/22 10:02:19;;;;;;;14.07;9.37;;;;;;;16.06;52.43;97756.63;5079885;28;20223;-80
2022/10/22 10:05:05;;;;;;;17.00;8.30;;;;;;;16.13;51.12;97753.63;5087000;28;20188;-82
2022/10/22 10:07:34;;;;;;;28.10;10.40;;;;;;;16.17;50.92;97752.50;5078786;28;20576;-82
2022/10/22 10:10:02;;;;;;;14.40;8.70;;;;;;;16.11;50.63;97750.25;5080699;28;20189;-82
2022/10/22 10:12:56;;;;;;;15.27;8.90;;;;;;;15.98;50.50;97730.09;5084996;28;20201;-81
2022/10/22 10:15:27;;;;;;;24.57;9.37;;;;;;;16.13;50.83;97743.16;5049444;28;20217;-83
2022/10/22 10:18:17;;;;;;;13.33;7.93;;;;;;;16.26;50.54;97754.59;5050870;28;20288;-78
2022/10/22 10:21:14;;;;;;;12.20;6.40;;;;;;;16.49;49.63;97740.22;5046320;28;20201;-83
2022/10/22 10:24:10;;;;;;;15.27;6.77;;;;;;;16.59;49.29;97730.09;5045429;28;20201;-80
2022/10/22 10:26:52;;;;;;;12.70;7.57;;;;;;;16.63;48.67;97723.75;5062510;28;20221;-77
2022/10/22 10:29:51;;;;;;;11.20;6.53;;;;;;;16.80;48.58;97716.56;5064130;28;20197;-81
2022/10/22 10:32:40;;;;;;;7.70;5.43;;;;;;;16.56;49.23;97715.41;5065709;28;20664;-77
2022/10/22 10:35:25;;;;;;;7.23;5.07;;;;;;;16.53;49.06;97723.41;5066131;28;20328;-76
2022/10/22 10:38:19;;;;;;;13.50;5.50;;;;;;;16.70;48.81;97710.19;5068651;28;20182;-77
2022/10/22 10:41:21;;;;;;;7.13;4.57;;;;;;;16.90;48.10;97711.59;5063894;28;20194;-76
2022/10/22 10:44:15;;;;;;;20.17;6.17;;;;;;;17.23;47.88;97699.09;5064604;28;20281;-77
2022/10/22 10:46:59;;;;;;;17.23;6.47;;;;;;;17.48;47.23;97690.53;5066247;28;20261;-76
2022/10/22 10:49:32;;;;;;;7.70;4.90;;;;;;;17.63;46.31;97680.00;5065607;28;20197;-76
2022/10/22 10:52:01;;;;;;;6.67;4.57;;;;;;;17.54;47.11;97690.19;5065887;28;20630;-73
2022/10/22 10:55:08;;;;;;;12.77;4.93;;;;;;;17.63;46.45;97666.91;5046762;28;20229;-76
2022/10/22 10:57:49;;;;;;;7.33;5.23;;;;;;;17.75;45.93;97655.63;5065480;28;20193;-77
2022/10/22 11:00:21;;;;;;;15.03;6.37;;;;;;;17.90;45.87;97664.28;5068967;28;20971;-80
2022/10/22 11:03:35;;;;;;;8.27;4.87;;;;;;;18.08;45.50;97668.31;5069133;28;20198;-76
2022/10/22 11:06:08;;;;;;;6.77;4.40;;;;;;;18.11;45.45;97677.75;5075984;28;20197;-77
2022/10/22 11:08:58;;;;;;;10.27;5.10;;;;;;;18.15;45.16;97650.41;5070006;28;20194;-78
2022/10/22 11:11:38;;;;;;;8.30;5.67;;;;;;;18.22;44.98;97662.16;5067620;28;20282;-76
2022/10/22 11:14:22;;;;;;;10.30;5.00;;;;;;;18.19;45.07;97662.38;5069994;28;20198;-76
2022/10/22 11:17:01;;;;;;;7.93;4.80;;;;;;;18.34;44.58;97661.34;5069382;28;20195;-75
2022/10/22 11:19:42;;;;;;;11.90;4.67;;;;;;;18.40;44.13;97663.56;5068697;28;20195;-77
2022/10/22 11:22:27;;;;;;;8.17;5.03;;;;;;;18.31;44.26;97641.41;5069938;28;20216;-77
2022/10/22 11:25:02;;;;;;;8.80;4.77;;;;;;;18.38;44.31;97649.72;5067830;28;20229;-79
2022/10/22 11:27:47;;;;;;;5.27;4.60;;;;;;;18.21;44.06;97640.34;5069367;28;20219;-77
2022/10/22 11:30:21;;;;;;;11.40;4.57;;;;;;;18.16;44.65;97638.97;5069249;28;20641;-80
2022/10/22 11:32:53;;;;;;;10.73;4.73;;;;;;;18.19;44.97;97638.78;5069639;28;20195;-79
2022/10/22 11:35:41;;;;;;;9.43;4.93;;;;;;;18.04;44.54;97624.03;5073727;28;20292;-78
2022/10/22 11:38:35;;;;;;;7.23;4.33;;;;;;;18.09;44.42;97619.34;5067503;28;20732;-76
2022/10/22 11:41:14;;;;;;;7.67;5.00;;;;;;;18.15;44.44;97614.53;5068903;28;20199;-77
2022/10/22 11:44:11;;;;;;;7.90;4.87;;;;;;;17.85;45.25;97611.31;5069073;28;20219;-81
2022/10/22 11:46:46;;;;;;;7.03;4.27;;;;;;;17.67;45.69;97610.75;5068455;28;20275;-79
2022/10/22 11:49:13;;;;;;;13.93;4.80;;;;;;;17.87;45.27;97614.66;5068836;28;20187;-79
2022/10/22 11:51:45;;;;;;;11.67;6.87;;;;;;;17.91;45.45;97607.47;5068841;28;20206;-80
2022/10/22 11:54:41;;;;;;;9.17;5.40;;;;;;;17.94;45.54;97607.25;5068450;28;20202;-81
2022/10/22 11:57:18;;;;;;;9.43;5.43;;;;;;;17.97;45.46;97605.25;5067773;28;20841;-78
2022/10/22 11:59:59;;;;;;;8.63;5.17;;;;;;;17.92;45.44;97593.41;5068249;28;20282;-77
2022/10/22 12:02:43;;;;;;;11.67;6.30;;;;;;;18.01;45.70;97592.81;5069026;28;20689;-78
2022/10/22 12:05:31;;;;;;;10.07;6.17;;;;;;;17.93;45.41;97595.09;5067508;28;20187;-76
2022/10/22 12:08:05;;;;;;;10.57;5.87;;;;;;;17.86;45.68;97590.28;5066888;28;20673;-79
2022/10/22 12:10:47;;;;;;;9.87;5.77;;;;;;;17.89;45.82;97590.06;5069198;28;20211;-80
2022/10/22 12:13:22;;;;;;;11.20;5.07;;;;;;;17.85;45.78;97580.72;5067836;28;20182;-75
2022/10/22 12:15:53;;;;;;;12.20;5.70;;;;;;;17.83;45.75;97569.50;5070060;28;20244;-79
2022/10/22 12:18:26;;;;;;;11.73;5.27;;;;;;;18.00;45.33;97580.63;5068939;28;20210;-78
2022/10/22 12:20:54;;;;;;;7.67;5.57;;;;;;;18.01;45.19;97583.16;5068718;28;20660;-82
2022/10/22 12:23:31;;;;;;;9.07;5.73;;;;;;;18.02;45.14;97578.75;5069259;28;20198;-81
2022/10/22 12:25:59;;;;;;;8.37;4.90;;;;;;;17.75;45.37;97557.84;5068300;28;20248;-82
2022/10/22 12:28:26;;;;;;;16.10;5.60;;;;;;;17.98;45.21;97578.13;5067669;28;20653;-80
2022/10/22 12:30:53;;;;;;;9.27;5.27;;;;;;;17.99;44.90;97571.09;5053607;28;20597;-81
2022/10/22 12:33:24;;;;;;;6.17;4.70;;;;;;;18.07;45.22;97568.81;5069486;28;20273;-79
2022/10/22 12:35:56;;;;;;;7.90;5.10;;;;;;;18.00;45.26;97565.75;5070762;28;20291;-78
2022/10/22 12:38:24;;;;;;;9.23;4.87;;;;;;;17.95;44.98;97559.16;5068104;28;20248;-81